Time;durP1;ratioP1;P1;durP2;ratioP2;P2;SDS_P1;SDS_P2;PMS_P1;PMS_P2;Temp;Humidity;BMP_temperature;BMP_pressure;BME280_temperature;BME280_humidity;BME280_pressure;Samples;Min_cycle;Max_cycle;Signal;HPM_P1;HPM_P2
2022/11/19 00:01:05;;;;;;;;;;;;;;;;;;5036905;28;20346;-79
2022/11/19 00:03:31;;;;;;;;;;;;;;;;;;5033597;28;21236;-80
2022/11/19 00:05:57;;;;;;;;;;;;;;;;;;5034982;28;19921;-79
2022/11/19 00:08:23;;;;;;;;;;;;;;;;;;5033267;28;20144;-79
2022/11/19 00:10:49;;;;;;;;;;;;;;;;;;5034291;28;19928;-78
2022/11/19 00:13:15;;;;;;;;;;;;;;;;;;5032327;28;19944;-79
2022/11/19 00:15:41;;;;;;;;;;;;;;;;;;5031415;28;20059;-78
2022/11/19 00:18:07;;;;;;;;;;;;;;;;;;5033125;28;19921;-78
2022/11/19 00:20:33;;;;;;;;;;;;;;;;;;5033940;28;20268;-79
2022/11/19 00:22:59;;;;;;;;;;;;;;;;;;5029529;28;19925;-77
2022/11/19 00:25:25;;;;;;;;;;;;;;;;;;5033909;28;19927;-78
2022/11/19 00:27:51;;;;;;;;;;;;;;;;;;5032346;28;20011;-82
2022/11/19 00:30:18;;;;;;;;;;;;;;;;;;5033219;28;19921;-78
2022/11/19 00:32:43;;;;;;;;;;;;;;;;;;5033226;28;20021;-80
2022/11/19 00:35:10;;;;;;;;;;;;;;;;;;5034450;28;19992;-78
2022/11/19 00:37:35;;;;;;;;;;;;;;;;;;5034641;28;19967;-78
2022/11/19 00:40:01;;;;;;;;;;;;;;;;;;5035972;28;19921;-78
2022/11/19 00:42:27;;;;;;;;;;;;;;;;;;5034709;28;19921;-78
2022/11/19 00:44:53;;;;;;;;;;;;;;;;;;5034183;28;19936;-78
2022/11/19 00:47:19;;;;;;;;;;;;;;;;;;5031466;28;19925;-78
2022/11/19 00:49:45;;;;;;;;;;;;;;;;;;5032844;28;20386;-79
2022/11/19 00:52:11;;;;;;;;;;;;;;;;;;5031814;28;19921;-79
2022/11/19 00:54:37;;;;;;;;;;;;;;;;;;5039672;28;19958;-79
2022/11/19 00:57:03;;;;;;;;;;;;;;;;;;5039537;28;19943;-79
2022/11/19 00:59:29;;;;;;;;;;;;;;;;;;5039298;28;19921;-79
2022/11/19 01:01:54;;;;;;;;;;;;;;;;;;5037057;28;19928;-78
2022/11/19 01:04:21;;;;;;;;;;;;;;;;;;5038073;28;19920;-78
2022/11/19 01:06:46;;;;;;;;;;;;;;;;;;5038360;28;19928;-79
2022/11/19 01:09:12;;;;;;;;;;;;;;;;;;5037818;28;19921;-78
2022/11/19 01:11:38;;;;;;;;;;;;;;;;;;5038717;28;19920;-79
2022/11/19 01:14:04;;;;;;;;;;;;;;;;;;5024965;28;20295;-79
2022/11/19 01:16:30;;;;;;;;;;;;;;;;;;5034596;28;19928;-79
2022/11/19 01:18:56;;;;;;;;;;;;;;;;;;5039558;28;19925;-78
2022/11/19 01:21:22;;;;;;;;;;;;;;;;;;5043271;28;19921;-78
2022/11/19 01:23:48;;;;;;;;;;;;;;;;;;5048643;28;19928;-77
2022/11/19 01:26:14;;;;;;;;;;;;;;;;;;5048001;28;19912;-78
2022/11/19 01:28:40;;;;;;;;;;;;;;;;;;5042529;28;19921;-80
2022/11/19 01:31:06;;;;;;;;;;;;;;;;;;5046148;28;19921;-79
2022/11/19 01:33:32;;;;;;;;;;;;;;;;;;5044081;28;19928;-79
2022/11/19 01:35:58;;;;;;;;;;;;;;;;;;5042707;28;19921;-79
2022/11/19 01:38:24;;;;;;;;;;;;;;;;;;5041081;28;20333;-79
2022/11/19 01:40:50;;;;;;;;;;;;;;;;;;5042223;28;19971;-79
2022/11/19 01:43:16;;;;;;;;;;;;;;;;;;5043671;28;19921;-80
2022/11/19 01:45:42;;;;;;;;;;;;;;;;;;5042752;28;20298;-79
2022/11/19 01:48:08;;;;;;;;;;;;;;;;;;5046039;28;19932;-78
2022/11/19 01:50:34;;;;;;;;;;;;;;;;;;5052080;28;19921;-79
2022/11/19 01:53:00;;;;;;;;;;;;;;;;;;5052342;28;19983;-79
2022/11/19 01:55:26;;;;;;;;;;;;;;;;;;5051627;28;20040;-79
2022/11/19 01:57:51;;;;;;;;;;;;;;;;;;5041692;28;20008;-79
2022/11/19 02:00:17;;;;;;;;;;;;;;;;;;5040021;28;20024;-79
2022/11/19 02:02:43;;;;;;;;;;;;;;;;;;5037941;28;19921;-79
2022/11/19 02:05:09;;;;;;;;;;;;;;;;;;5037189;28;19964;-79
2022/11/19 02:07:35;;;;;;;;;;;;;;;;;;5030991;28;19992;-79
2022/11/19 02:10:01;;;;;;;;;;;;;;;;;;5037053;28;20294;-78
2022/11/19 02:12:27;;;;;;;;;;;;;;;;;;5036222;28;19921;-79
2022/11/19 02:14:53;;;;;;;;;;;;;;;;;;5036760;28;19921;-77
2022/11/19 02:17:19;;;;;;;;;;;;;;;;;;5034043;28;19925;-79
2022/11/19 02:19:45;;;;;;;;;;;;;;;;;;5036607;28;19927;-79
2022/11/19 02:22:12;;;;;;;;;;;;;;;;;;5035070;28;19968;-79
2022/11/19 02:24:38;;;;;;;;;;;;;;;;;;5029394;28;19921;-79
2022/11/19 02:27:04;;;;;;;;;;;;;;;;;;5037313;28;19928;-79
2022/11/19 02:29:30;;;;;;;;;;;;;;;;;;5037102;28;19925;-78
2022/11/19 02:31:56;;;;;;;;;;;;;;;;;;5034925;28;20410;-78
2022/11/19 02:34:22;;;;;;;;;;;;;;;;;;5035215;28;19983;-78
2022/11/19 02:36:48;;;;;;;;;;;;;;;;;;5034004;28;21678;-79
2022/11/19 02:39:14;;;;;;;;;;;;;;;;;;5036757;28;19921;-79
2022/11/19 02:41:40;;;;;;;;;;;;;;;;;;5037900;28;19927;-79
2022/11/19 02:46:50;;;;;;;;;;;;;;;;;;5039941;28;19925;-80
2022/11/19 02:49:16;;;;;;;;;;;;;;;;;;5038330;28;19921;-80
2022/11/19 02:51:42;;;;;;;;;;;;;;;;;;5036204;28;19924;-80
2022/11/19 02:54:08;;;;;;;;;;;;;;;;;;5035211;28;19975;-79
2022/11/19 02:56:34;;;;;;;;;;;;;;;;;;5038554;28;20350;-80
2022/11/19 03:04:29;;;;;;;;;;;;;;;;;;5034995;28;19925;-80
2022/11/19 03:06:55;;;;;;;;;;;;;;;;;;5035297;28;19927;-79
2022/11/19 03:09:20;;;;;;;;;;;;;;;;;;5032985;28;19921;-79
2022/11/19 03:11:46;;;;;;;;;;;;;;;;;;5030706;28;20385;-79
2022/11/19 03:16:57;;;;;;;;;;;;;;;;;;5033910;28;19921;-79
2022/11/19 03:19:23;;;;;;;;;;;;;;;;;;5033819;28;20263;-79
2022/11/19 03:21:49;;;;;;;;;;;;;;;;;;5035105;28;19925;-80
2022/11/19 03:24:15;;;;;;;;;;;;;;;;;;5034582;28;19986;-79
2022/11/19 03:26:40;;;;;;;;;;;;;;;;;;5034619;28;20000;-80
2022/11/19 03:29:06;;;;;;;;;;;;;;;;;;5034361;28;19932;-79
2022/11/19 03:31:32;;;;;;;;;;;;;;;;;;5034124;28;19928;-79
2022/11/19 03:33:58;;;;;;;;;;;;;;;;;;5033786;28;20333;-79
2022/11/19 03:36:24;;;;;;;;;;;;;;;;;;5035920;28;19977;-79
2022/11/19 03:38:50;;;;;;;;;;;;;;;;;;5037493;28;19921;-79
2022/11/19 03:41:16;;;;;;;;;;;;;;;;;;5036174;28;19921;-79
2022/11/19 03:43:42;;;;;;;;;;;;;;;;;;5037531;28;19921;-79
2022/11/19 03:46:08;;;;;;;;;;;;;;;;;;5038679;28;20008;-81
2022/11/19 03:48:33;;;;;;;;;;;;;;;;;;5036758;28;20385;-81
2022/11/19 03:50:59;;;;;;;;;;;;;;;;;;5038288;28;19935;-79
2022/11/19 03:53:25;;;;;;;;;;;;;;;;;;5009146;28;19921;-79
2022/11/19 03:55:51;;;;;;;;;;;;;;;;;;5039959;28;19928;-80
2022/11/19 03:58:18;;;;;;;;;;;;;;;;;;5041000;28;19948;-80
2022/11/19 04:00:44;;;;;;;;;;;;;;;;;;5036412;28;19944;-80
2022/11/19 04:03:10;;;;;;;;;;;;;;;;;;5007893;28;19921;-79
2022/11/19 04:05:36;;;;;;;;;;;;;;;;;;5043619;28;20310;-80
2022/11/19 04:08:02;;;;;;;;;;;;;;;;;;5050265;28;19944;-81
2022/11/19 04:10:28;;;;;;;;;;;;;;;;;;5050802;28;19921;-80
2022/11/19 04:12:54;;;;;;;;;;;;;;;;;;5051759;28;19976;-80
2022/11/19 04:15:20;;;;;;;;;;;;;;;;;;5047362;28;19921;-79
2022/11/19 04:17:46;;;;;;;;;;;;;;;;;;5042948;28;19923;-80
2022/11/19 04:20:12;;;;;;;;;;;;;;;;;;5044822;28;19927;-79
2022/11/19 04:22:37;;;;;;;;;;;;;;;;;;5041687;28;19988;-79
2022/11/19 04:25:03;;;;;;;;;;;;;;;;;;5041448;28;20004;-80
2022/11/19 04:27:29;;;;;;;;;;;;;;;;;;5041477;28;19992;-81
2022/11/19 04:29:55;;;;;;;;;;;;;;;;;;5035846;28;19920;-81
2022/11/19 04:32:21;;;;;;;;;;;;;;;;;;5035654;28;19921;-80
2022/11/19 04:34:47;;;;;;;;;;;;;;;;;;5038602;28;19921;-80
2022/11/19 04:37:13;;;;;;;;;;;;;;;;;;5039720;28;19928;-80
2022/11/19 04:39:39;;;;;;;;;;;;;;;;;;5040702;28;19925;-82
2022/11/19 04:42:05;;;;;;;;;;;;;;;;;;5041681;28;19921;-80
2022/11/19 04:44:31;;;;;;;;;;;;;;;;;;5038604;28;19968;-79
2022/11/19 04:46:58;;;;;;;;;;;;;;;;;;5040589;28;20334;-80
2022/11/19 04:49:24;;;;;;;;;;;;;;;;;;5041648;28;19968;-79
2022/11/19 04:51:50;;;;;;;;;;;;;;;;;;5040888;28;19933;-80
2022/11/19 04:54:16;;;;;;;;;;;;;;;;;;5024628;28;20302;-80
2022/11/19 04:56:42;;;;;;;;;;;;;;;;;;5038759;28;19929;-80
2022/11/19 04:59:07;;;;;;;;;;;;;;;;;;5039224;28;19917;-80
2022/11/19 05:01:33;;;;;;;;;;;;;;;;;;5039437;28;19921;-80
2022/11/19 05:03:59;;;;;;;;;;;;;;;;;;5041171;28;19937;-80
2022/11/19 05:06:25;;;;;;;;;;;;;;;;;;5041268;28;20298;-80
2022/11/19 05:08:51;;;;;;;;;;;;;;;;;;5041670;28;19951;-80
2022/11/19 05:11:17;;;;;;;;;;;;;;;;;;5039795;28;20382;-80
2022/11/19 05:13:43;;;;;;;;;;;;;;;;;;5040708;28;19948;-80
2022/11/19 05:16:09;;;;;;;;;;;;;;;;;;5039629;28;19987;-79
2022/11/19 05:18:35;;;;;;;;;;;;;;;;;;5039889;28;20007;-80
2022/11/19 05:21:01;;;;;;;;;;;;;;;;;;5040222;28;19921;-80
2022/11/19 05:23:26;;;;;;;;;;;;;;;;;;5039555;28;20275;-80
2022/11/19 05:25:52;;;;;;;;;;;;;;;;;;5022685;28;20020;-80
2022/11/19 05:28:18;;;;;;;;;;;;;;;;;;5044049;28;19996;-80
2022/11/19 05:30:44;;;;;;;;;;;;;;;;;;5046831;28;19984;-79
2022/11/19 05:33:10;;;;;;;;;;;;;;;;;;5046954;28;19976;-80
2022/11/19 05:35:36;;;;;;;;;;;;;;;;;;5040846;28;20061;-80
2022/11/19 05:38:02;;;;;;;;;;;;;;;;;;5045179;28;20011;-79
2022/11/19 05:40:28;;;;;;;;;;;;;;;;;;5044536;28;19952;-80
2022/11/19 05:42:54;;;;;;;;;;;;;;;;;;5052249;28;19968;-79
2022/11/19 05:45:20;;;;;;;;;;;;;;;;;;5050398;28;20310;-80
2022/11/19 05:47:45;;;;;;;;;;;;;;;;;;5051969;28;19921;-80
2022/11/19 05:50:11;;;;;;;;;;;;;;;;;;5053299;28;19976;-80
2022/11/19 05:52:37;;;;;;;;;;;;;;;;;;5044928;28;19978;-80
2022/11/19 05:55:03;;;;;;;;;;;;;;;;;;5033809;28;19953;-80
2022/11/19 05:57:29;;;;;;;;;;;;;;;;;;5047378;28;19938;-80
2022/11/19 05:59:55;;;;;;;;;;;;;;;;;;5045464;28;19935;-80
2022/11/19 06:02:21;;;;;;;;;;;;;;;;;;5030475;28;19905;-81
2022/11/19 06:04:48;;;;;;;;;;;;;;;;;;5036935;28;19920;-81
2022/11/19 06:07:14;;;;;;;;;;;;;;;;;;5050530;28;19921;-80
2022/11/19 06:09:41;;;;;;;;;;;;;;;;;;5039231;28;19991;-81
2022/11/19 06:12:07;;;;;;;;;;;;;;;;;;5040862;28;20008;-80
2022/11/19 06:14:34;;;;;;;;;;;;;;;;;;5042502;28;19952;-81
2022/11/19 06:17:00;;;;;;;;;;;;;;;;;;5041668;28;19928;-81
2022/11/19 06:19:26;;;;;;;;;;;;;;;;;;5045981;28;19909;-80
2022/11/19 06:21:52;;;;;;;;;;;;;;;;;;5052715;28;19920;-81
2022/11/19 06:24:18;;;;;;;;;;;;;;;;;;5056572;28;19927;-80
2022/11/19 06:26:43;;;;;;;;;;;;;;;;;;5037928;28;19929;-81
2022/11/19 06:29:09;;;;;;;;;;;;;;;;;;5057767;28;19917;-81
2022/11/19 06:31:35;;;;;;;;;;;;;;;;;;5038357;28;19980;-80
2022/11/19 06:34:04;;;;;;;;;;;;;;;;;;5057095;28;19920;-80
2022/11/19 06:36:30;;;;;;;;;;;;;;;;;;5053637;28;19943;-81
2022/11/19 06:38:56;;;;;;;;;;;;;;;;;;5043964;28;19921;-81
2022/11/19 06:41:22;;;;;;;;;;;;;;;;;;5019875;28;19929;-80
2022/11/19 06:43:48;;;;;;;;;;;;;;;;;;5038981;28;19977;-81
2022/11/19 06:46:14;;;;;;;;;;;;;;;;;;5054451;28;20320;-81
2022/11/19 06:48:40;;;;;;;;;;;;;;;;;;5046147;28;19925;-81
2022/11/19 06:51:06;;;;;;;;;;;;;;;;;;5050064;28;20003;-81
2022/11/19 06:53:32;;;;;;;;;;;;;;;;;;5050690;28;19905;-81
2022/11/19 06:55:57;;;;;;;;;;;;;;;;;;5050949;28;19916;-81
2022/11/19 06:58:23;;;;;;;;;;;;;;;;;;5054548;28;19984;-81
2022/11/19 07:00:49;;;;;;;;;;;;;;;;;;5056542;28;19967;-81
2022/11/19 07:03:15;;;;;;;;;;;;;;;;;;5055824;28;19923;-81
2022/11/19 07:05:41;;;;;;;;;;;;;;;;;;5054011;28;20000;-82
2022/11/19 07:08:07;;;;;;;;;;;;;;;;;;5030025;28;19905;-81
2022/11/19 07:10:33;;;;;;;;;;;;;;;;;;5054091;28;19928;-81
2022/11/19 07:12:59;;;;;;;;;;;;;;;;;;5055093;28;19921;-81
2022/11/19 07:15:25;;;;;;;;;;;;;;;;;;5056490;28;19921;-81
2022/11/19 07:17:51;;;;;;;;;;;;;;;;;;5055932;28;19970;-82
2022/11/19 07:20:16;;;;;;;;;;;;;;;;;;5055125;28;19921;-81
2022/11/19 07:22:42;;;;;;;;;;;;;;;;;;5037128;28;19960;-81
2022/11/19 07:25:11;;;;;;;;;;;;;;;;;;5053693;28;19932;-81
2022/11/19 07:27:37;;;;;;;;;;;;;;;;;;5053249;28;19912;-81
2022/11/19 07:30:04;;;;;;;;;;;;;;;;;;5054647;28;19925;-81
2022/11/19 07:32:30;;;;;;;;;;;;;;;;;;5055295;28;19921;-81
2022/11/19 07:34:56;;;;;;;;;;;;;;;;;;5052775;28;19921;-82
2022/11/19 07:37:22;;;;;;;;;;;;;;;;;;5040948;28;19921;-82
2022/11/19 07:39:48;;;;;;;;;;;;;;;;;;5039335;28;19932;-81
2022/11/19 07:44:58;;;;;;;;;;;;;;;;;;5045779;28;19932;-82
2022/11/19 07:47:24;;;;;;;;;;;;;;;;;;5046179;28;20236;-82
2022/11/19 07:49:50;;;;;;;;;;;;;;;;;;5047861;28;19943;-82
2022/11/19 07:52:16;;;;;;;;;;;;;;;;;;5050591;28;19943;-83
2022/11/19 07:54:42;;;;;;;;;;;;;;;;;;5051349;28;19987;-83
2022/11/19 07:57:09;;;;;;;;;;;;;;;;;;5051177;28;19987;-83
2022/11/19 07:59:35;;;;;;;;;;;;;;;;;;5049325;28;19920;-82
2022/11/19 08:02:01;;;;;;;;;;;;;;;;;;5037718;28;19921;-83
2022/11/19 08:04:27;;;;;;;;;;;;;;;;;;5043629;28;19927;-83
2022/11/19 08:06:53;;;;;;;;;;;;;;;;;;5051440;28;20398;-82
2022/11/19 08:09:19;;;;;;;;;;;;;;;;;;5051046;28;19925;-82
2022/11/19 08:11:45;;;;;;;;;;;;;;;;;;5051239;28;19921;-83
2022/11/19 08:14:12;;;;;;;;;;;;;;;;;;5050879;28;19928;-82
2022/11/19 08:19:22;;;;;;;;;;;;;;;;;;5052012;28;19968;-83
2022/11/19 08:21:48;;;;;;;;;;;;;;;;;;5051404;28;19921;-82
2022/11/19 08:24:14;;;;;;;;;;;;;;;;;;5044639;28;19968;-84
2022/11/19 08:26:40;;;;;;;;;;;;;;;;;;5040418;28;19960;-83
2022/11/19 08:29:06;;;;;;;;;;;;;;;;;;5042156;28;19917;-83
2022/11/19 08:31:32;;;;;;;;;;;;;;;;;;5031094;28;19921;-81
2022/11/19 08:33:58;;;;;;;;;;;;;;;;;;5050873;28;19924;-82
2022/11/19 08:36:24;;;;;;;;;;;;;;;;;;5067022;28;19928;-83
2022/11/19 08:38:50;;;;;;;;;;;;;;;;;;5033800;28;19970;-83
2022/11/19 08:44:01;;;;;;;;;;;;;;;;;;5046432;28;20358;-82
2022/11/19 08:46:27;;;;;;;;;;;;;;;;;;5040381;28;19928;-82
2022/11/19 08:48:53;;;;;;;;;;;;;;;;;;5042868;28;19994;-83
2022/11/19 08:51:19;;;;;;;;;;;;;;;;;;5042384;28;20313;-83
2022/11/19 08:53:45;;;;;;;;;;;;;;;;;;5040330;28;20382;-83
2022/11/19 08:56:11;;;;;;;;;;;;;;;;;;5057154;28;19971;-83
2022/11/19 08:58:37;;;;;;;;;;;;;;;;;;5039743;28;21409;-81
2022/11/19 09:01:03;;;;;;;;;;;;;;;;;;5044039;28;19921;-82
2022/11/19 09:03:29;;;;;;;;;;;;;;;;;;5028438;28;20032;-82
2022/11/19 09:05:55;;;;;;;;;;;;;;;;;;5043556;28;20008;-80
2022/11/19 09:08:21;;;;;;;;;;;;;;;;;;5044644;28;20052;-82
2022/11/19 09:10:47;;;;;;;;;;;;;;;;;;5062173;28;19984;-80
2022/11/19 09:13:13;;;;;;;;;;;;;;;;;;5042346;28;19927;-83
2022/11/19 09:15:38;;;;;;;;;;;;;;;;;;5042740;28;19928;-82
2022/11/19 09:18:04;;;;;;;;;;;;;;;;;;5044051;28;20389;-81
2022/11/19 09:20:30;;;;;;;;;;;;;;;;;;5034521;28;19985;-83
2022/11/19 09:22:56;;;;;;;;;;;;;;;;;;5027390;28;19921;-81
2022/11/19 09:25:22;;;;;;;;;;;;;;;;;;5045351;28;19921;-82
2022/11/19 09:27:48;;;;;;;;;;;;;;;;;;5046853;28;19971;-81
2022/11/19 09:30:14;;;;;;;;;;;;;;;;;;5054992;28;19932;-81
2022/11/19 09:32:40;;;;;;;;;;;;;;;;;;5049003;28;19920;-80
2022/11/19 09:35:06;;;;;;;;;;;;;;;;;;5033635;28;19976;-81
2022/11/19 09:37:33;;;;;;;;;;;;;;;;;;5053159;28;19953;-81
2022/11/19 09:39:59;;;;;;;;;;;;;;;;;;5032717;28;19921;-81
2022/11/19 09:42:25;;;;;;;;;;;;;;;;;;5043840;28;19928;-80
2022/11/19 09:44:50;;;;;;;;;;;;;;;;;;5043363;28;19921;-81
2022/11/19 09:47:16;;;;;;;;;;;;;;;;;;5038259;28;19921;-81
2022/11/19 09:49:42;;;;;;;;;;;;;;;;;;5044008;28;19954;-80
2022/11/19 09:52:08;;;;;;;;;;;;;;;;;;5041307;28;20015;-81
2022/11/19 09:54:34;;;;;;;;;;;;;;;;;;5045567;28;19973;-80
2022/11/19 09:57:00;;;;;;;;;;;;;;;;;;5050558;28;19972;-82
2022/11/19 09:59:26;;;;;;;;;;;;;;;;;;5048193;28;19977;-81
2022/11/19 10:01:52;;;;;;;;;;;;;;;;;;5047875;28;19928;-80
2022/11/19 10:04:18;;;;;;;;;;;;;;;;;;5046339;28;19936;-80
2022/11/19 10:06:44;;;;;;;;;;;;;;;;;;5044722;28;20366;-81
2022/11/19 10:09:10;;;;;;;;;;;;;;;;;;5040681;28;19929;-79
2022/11/19 10:11:36;;;;;;;;;;;;;;;;;;5043412;28;19927;-82
2022/11/19 10:14:02;;;;;;;;;;;;;;;;;;5042554;28;19976;-79
2022/11/19 10:16:28;;;;;;;;;;;;;;;;;;5041620;28;19986;-80
2022/11/19 10:18:53;;;;;;;;;;;;;;;;;;5042012;28;19984;-81
2022/11/19 10:21:19;;;;;;;;;;;;;;;;;;5042028;28;19968;-81
2022/11/19 10:23:45;;;;;;;;;;;;;;;;;;5040180;28;19924;-81
2022/11/19 10:26:11;;;;;;;;;;;;;;;;;;5039107;28;19929;-80
2022/11/19 10:28:37;;;;;;;;;;;;;;;;;;5038021;28;19921;-81
2022/11/19 10:31:03;;;;;;;;;;;;;;;;;;5042696;28;19928;-81
2022/11/19 10:33:29;;;;;;;;;;;;;;;;;;5041031;28;19947;-80
2022/11/19 10:35:55;;;;;;;;;;;;;;;;;;5040561;28;19929;-81
2022/11/19 10:38:21;;;;;;;;;;;;;;;;;;5041765;28;19928;-81
2022/11/19 10:40:47;;;;;;;;;;;;;;;;;;5036758;28;19922;-81
2022/11/19 10:43:13;;;;;;;;;;;;;;;;;;5028109;28;19944;-82
2022/11/19 10:45:39;;;;;;;;;;;;;;;;;;5041944;28;19967;-81
2022/11/19 10:48:05;;;;;;;;;;;;;;;;;;5034439;28;19979;-81
2022/11/19 10:50:31;;;;;;;;;;;;;;;;;;5043940;28;19929;-80
2022/11/19 10:52:56;;;;;;;;;;;;;;;;;;5054112;28;19920;-80
2022/11/19 10:55:22;;;;;;;;;;;;;;;;;;5044610;28;19921;-78
2022/11/19 10:57:48;;;;;;;;;;;;;;;;;;5038202;28;19929;-78
2022/11/19 11:00:14;;;;;;;;;;;;;;;;;;5041854;28;19925;-81
2022/11/19 11:02:40;;;;;;;;;;;;;;;;;;5041833;28;19921;-81
2022/11/19 11:05:06;;;;;;;;;;;;;;;;;;5038933;28;19921;-79
2022/11/19 11:07:32;;;;;;;;;;;;;;;;;;5040946;28;19924;-80
2022/11/19 11:09:58;;;;;;;;;;;;;;;;;;5039319;28;19921;-81
2022/11/19 11:15:08;;;;;;;;;;;;;;;;;;5037159;28;19921;-78
2022/11/19 11:17:35;;;;;;;;;;;;;;;;;;5032911;28;20016;-78
2022/11/19 11:20:01;;;;;;;;;;;;;;;;;;5032950;28;19929;-80
2022/11/19 11:22:27;;;;;;;;;;;;;;;;;;5036643;28;20004;-79
2022/11/19 11:24:53;;;;;;;;;;;;;;;;;;5037589;28;20068;-80
2022/11/19 11:27:19;;;;;;;;;;;;;;;;;;5039537;28;19932;-80
2022/11/19 11:29:45;;;;;;;;;;;;;;;;;;5025758;28;19936;-80
2022/11/19 11:32:11;;;;;;;;;;;;;;;;;;5045089;28;19921;-80
2022/11/19 11:34:37;;;;;;;;;;;;;;;;;;5028463;28;19933;-79
2022/11/19 11:37:03;;;;;;;;;;;;;;;;;;5046284;28;19921;-80
2022/11/19 11:39:29;;;;;;;;;;;;;;;;;;5045078;28;19921;-80
2022/11/19 11:41:55;;;;;;;;;;;;;;;;;;5045444;28;19945;-80
2022/11/19 11:44:20;;;;;;;;;;;;;;;;;;5041513;28;19928;-80
2022/11/19 11:46:46;;;;;;;;;;;;;;;;;;5038014;28;19943;-79
2022/11/19 11:49:12;;;;;;;;;;;;;;;;;;5035911;28;20421;-79
2022/11/19 11:51:38;;;;;;;;;;;;;;;;;;5036357;28;19921;-79
2022/11/19 11:54:04;;;;;;;;;;;;;;;;;;5034841;28;19921;-79
2022/11/19 11:56:30;;;;;;;;;;;;;;;;;;5035705;28;19921;-81
2022/11/19 11:58:56;;;;;;;;;;;;;;;;;;5042697;28;19936;-78
2022/11/19 12:01:22;;;;;;;;;;;;;;;;;;5051973;28;19909;-79
2022/11/19 12:03:48;;;;;;;;;;;;;;;;;;5051791;28;19936;-78
2022/11/19 12:06:14;;;;;;;;;;;;;;;;;;5045036;28;20386;-79
2022/11/19 12:08:40;;;;;;;;;;;;;;;;;;5035163;28;20104;-80
2022/11/19 12:11:05;;;;;;;;;;;;;;;;;;5044395;28;19943;-80
2022/11/19 12:13:31;;;;;;;;;;;;;;;;;;5052890;28;19929;-80
2022/11/19 12:15:57;;;;;;;;;;;;;;;;;;5053724;28;19908;-80
2022/11/19 12:18:23;;;;;;;;;;;;;;;;;;5052166;28;19921;-82
2022/11/19 12:20:49;;;;;;;;;;;;;;;;;;5045254;28;19925;-80
2022/11/19 12:23:15;;;;;;;;;;;;;;;;;;5037559;28;19921;-81
2022/11/19 12:25:41;;;;;;;;;;;;;;;;;;5040403;28;19921;-81
2022/11/19 12:28:07;;;;;;;;;;;;;;;;;;5042312;28;19928;-80
2022/11/19 12:30:33;;;;;;;;;;;;;;;;;;5023891;28;19921;-80
2022/11/19 12:32:59;;;;;;;;;;;;;;;;;;5040993;28;19921;-79
2022/11/19 12:35:24;;;;;;;;;;;;;;;;;;5041757;28;20285;-80
2022/11/19 12:37:50;;;;;;;;;;;;;;;;;;5039112;28;19944;-80
2022/11/19 12:40:16;;;;;;;;;;;;;;;;;;5041227;28;19921;-80
2022/11/19 12:42:42;;;;;;;;;;;;;;;;;;5042472;28;19928;-80
2022/11/19 12:45:08;;;;;;;;;;;;;;;;;;5045348;28;19921;-81
2022/11/19 12:47:34;;;;;;;;;;;;;;;;;;5050442;28;19971;-80
2022/11/19 12:50:00;;;;;;;;;;;;;;;;;;5048228;28;19921;-81
2022/11/19 12:52:26;;;;;;;;;;;;;;;;;;5051684;28;19960;-81
2022/11/19 12:54:52;;;;;;;;;;;;;;;;;;5055393;28;19960;-81
2022/11/19 12:57:18;;;;;;;;;;;;;;;;;;5054931;28;19921;-80
2022/11/19 12:59:44;;;;;;;;;;;;;;;;;;5050113;28;19917;-80
2022/11/19 13:02:10;;;;;;;;;;;;;;;;;;5057202;28;19960;-80
2022/11/19 13:04:36;;;;;;;;;;;;;;;;;;5049473;28;20016;-80
2022/11/19 13:07:02;;;;;;;;;;;;;;;;;;5047351;28;19921;-79
2022/11/19 13:09:28;;;;;;;;;;;;;;;;;;5041498;28;19921;-79
2022/11/19 13:11:54;;;;;;;;;;;;;;;;;;5040499;28;20430;-79
2022/11/19 13:14:20;;;;;;;;;;;;;;;;;;5036123;28;19956;-79
2022/11/19 13:16:46;;;;;;;;;;;;;;;;;;5031500;28;19929;-80
2022/11/19 13:19:12;;;;;;;;;;;;;;;;;;5038546;28;19932;-80
2022/11/19 13:21:39;;;;;;;;;;;;;;;;;;5024212;28;19921;-80
2022/11/19 13:24:04;;;;;;;;;;;;;;;;;;5039105;28;20565;-81
2022/11/19 13:26:30;;;;;;;;;;;;;;;;;;5038810;28;19925;-78
2022/11/19 13:28:56;;;;;;;;;;;;;;;;;;5037594;28;19929;-79
2022/11/19 13:31:22;;;;;;;;;;;;;;;;;;5041388;28;19928;-80
2022/11/19 13:33:48;;;;;;;;;;;;;;;;;;5039189;28;19927;-80
2022/11/19 13:36:14;;;;;;;;;;;;;;;;;;5036481;28;19920;-79
2022/11/19 13:38:43;;;;;;;;;;;;;;;;;;5037291;28;20424;-80
2022/11/19 13:41:10;;;;;;;;;;;;;;;;;;5036562;28;20317;-82
2022/11/19 13:46:20;;;;;;;;;;;;;;;;;;5048986;28;19976;-80
2022/11/19 13:48:46;;;;;;;;;;;;;;;;;;5050814;28;20280;-80
2022/11/19 13:51:12;;;;;;;;;;;;;;;;;;5049577;28;19921;-80
2022/11/19 13:53:38;;;;;;;;;;;;;;;;;;5038989;28;19921;-81
2022/11/19 13:56:04;;;;;;;;;;;;;;;;;;5035571;28;19924;-80
2022/11/19 13:58:30;;;;;;;;;;;;;;;;;;5031955;28;19925;-81
2022/11/19 14:00:56;;;;;;;;;;;;;;;;;;5022750;28;19928;-80
2022/11/19 14:03:22;;;;;;;;;;;;;;;;;;5038395;28;19921;-81
2022/11/19 14:05:48;;;;;;;;;;;;;;;;;;5037915;28;19952;-80
2022/11/19 14:08:13;;;;;;;;;;;;;;;;;;5033947;28;19921;-80
2022/11/19 14:10:39;;;;;;;;;;;;;;;;;;5033654;28;19925;-79
2022/11/19 14:13:05;;;;;;;;;;;;;;;;;;5034592;28;19928;-80
2022/11/19 14:26:31;;;;;;;;;;;;;;;;;;5029265;28;19927;-79
2022/11/19 14:28:58;;;;;;;;;;;;;;;;;;5037339;28;20282;-80
2022/11/19 14:31:24;;;;;;;;;;;;;;;;;;5035820;28;19960;-79
2022/11/19 14:33:49;;;;;;;;;;;;;;;;;;5040461;28;19925;-81
2022/11/19 14:36:15;;;;;;;;;;;;;;;;;;5046813;28;19921;-80
2022/11/19 14:38:41;;;;;;;;;;;;;;;;;;5048753;28;19947;-80
2022/11/19 14:41:07;;;;;;;;;;;;;;;;;;5047984;28;19921;-79
2022/11/19 14:46:18;;;;;;;;;;;;;;;;;;5046337;28;19921;-81
2022/11/19 14:48:44;;;;;;;;;;;;;;;;;;5028799;28;19928;-80
2022/11/19 14:51:10;;;;;;;;;;;;;;;;;;5046755;28;19981;-81
2022/11/19 14:53:36;;;;;;;;;;;;;;;;;;5049074;28;19952;-80
2022/11/19 14:56:02;;;;;;;;;;;;;;;;;;5049118;28;19956;-81
2022/11/19 14:58:28;;;;;;;;;;;;;;;;;;5043705;28;20339;-80
2022/11/19 15:00:53;;;;;;;;;;;;;;;;;;5049528;28;19984;-80
2022/11/19 15:03:19;;;;;;;;;;;;;;;;;;5048340;28;19956;-80
2022/11/19 15:05:48;;;;;;;;;;;;;;;;;;5045008;28;19940;-79
2022/11/19 15:08:14;;;;;;;;;;;;;;;;;;5048130;28;19928;-79
2022/11/19 15:10:40;;;;;;;;;;;;;;;;;;5047360;28;19925;-80
2022/11/19 15:13:06;;;;;;;;;;;;;;;;;;5040229;28;19927;-81
2022/11/19 15:15:31;;;;;;;;;;;;;;;;;;5037921;28;19927;-80
2022/11/19 15:17:57;;;;;;;;;;;;;;;;;;5037626;28;19921;-81
2022/11/19 15:20:23;;;;;;;;;;;;;;;;;;5036389;28;19920;-81
2022/11/19 15:22:49;;;;;;;;;;;;;;;;;;5045379;28;19924;-81
2022/11/19 15:25:15;;;;;;;;;;;;;;;;;;5037662;28;19936;-80
2022/11/19 15:27:41;;;;;;;;;;;;;;;;;;5038293;28;19935;-80
2022/11/19 15:30:07;;;;;;;;;;;;;;;;;;5040658;28;19920;-81
2022/11/19 15:32:33;;;;;;;;;;;;;;;;;;5041203;28;19921;-82
2022/11/19 15:34:59;;;;;;;;;;;;;;;;;;5040571;28;20367;-81
2022/11/19 15:37:25;;;;;;;;;;;;;;;;;;5044994;28;19979;-81
2022/11/19 15:39:51;;;;;;;;;;;;;;;;;;5046990;28;19948;-80
2022/11/19 15:42:17;;;;;;;;;;;;;;;;;;5028898;28;19971;-81
2022/11/19 15:44:43;;;;;;;;;;;;;;;;;;5029943;28;19921;-80
2022/11/19 15:47:09;;;;;;;;;;;;;;;;;;5030173;28;19921;-80
2022/11/19 15:49:35;;;;;;;;;;;;;;;;;;5047006;28;19921;-80
2022/11/19 15:52:01;;;;;;;;;;;;;;;;;;5052717;28;20367;-80
2022/11/19 15:54:28;;;;;;;;;;;;;;;;;;5051896;28;19925;-81
2022/11/19 15:56:54;;;;;;;;;;;;;;;;;;5045151;28;19921;-81
2022/11/19 15:59:20;;;;;;;;;;;;;;;;;;5048930;28;19948;-81
2022/11/19 16:01:46;;;;;;;;;;;;;;;;;;5048248;28;19945;-82
2022/11/19 16:04:12;;;;;;;;;;;;;;;;;;5034107;28;19921;-81
2022/11/19 16:06:41;;;;;;;;;;;;;;;;;;5047934;28;19921;-80
2022/11/19 16:09:07;;;;;;;;;;;;;;;;;;5049454;28;19956;-81
2022/11/19 16:19:47;;;;;;;;;;;;;;;;;;5044382;28;20060;-83
2022/11/19 16:22:13;;;;;;;;;;;;;;;;;;5043432;28;20267;-82
2022/11/19 16:27:23;;;;;;;;;;;;;;;;;;5040854;28;19920;-81
2022/11/19 16:29:49;;;;;;;;;;;;;;;;;;5047799;28;19976;-81
2022/11/19 16:32:15;;;;;;;;;;;;;;;;;;5044039;28;19936;-81
2022/11/19 16:34:41;;;;;;;;;;;;;;;;;;5040171;28;19943;-82
2022/11/19 16:37:07;;;;;;;;;;;;;;;;;;5039162;28;19921;-79
2022/11/19 16:39:33;;;;;;;;;;;;;;;;;;5037580;28;19921;-78
2022/11/19 16:42:17;;;;;;;;;;;;;;;;;;5030250;28;19932;-78
2022/11/19 16:44:43;;;;;;;;;;;;;;;;;;5021228;28;20003;-78
2022/11/19 16:47:09;;;;;;;;;;;;;;;;;;5040083;28;19925;-78
2022/11/19 16:49:35;;;;;;;;;;;;;;;;;;5037816;28;19921;-79
2022/11/19 16:52:01;;;;;;;;;;;;;;;;;;5042382;28;19975;-78
2022/11/19 16:54:27;;;;;;;;;;;;;;;;;;5037197;28;20004;-79
2022/11/19 16:56:53;;;;;;;;;;;;;;;;;;5043075;28;19967;-79
2022/11/19 16:59:19;;;;;;;;;;;;;;;;;;5038877;28;19921;-79
2022/11/19 17:01:45;;;;;;;;;;;;;;;;;;5042280;28;20275;-78
2022/11/19 17:04:11;;;;;;;;;;;;;;;;;;5037299;28;19967;-78
2022/11/19 17:06:37;;;;;;;;;;;;;;;;;;5034294;28;20417;-78
2022/11/19 17:09:03;;;;;;;;;;;;;;;;;;5037606;28;20401;-79
2022/11/19 17:14:13;;;;;;;;;;;;;;;;;;5037191;28;19921;-79
2022/11/19 17:16:39;;;;;;;;;;;;;;;;;;5040412;28;20328;-77
2022/11/19 17:19:05;;;;;;;;;;;;;;;;;;5041929;28;19960;-78
2022/11/19 17:21:31;;;;;;;;;;;;;;;;;;5044579;28;19935;-79
2022/11/19 17:23:57;;;;;;;;;;;;;;;;;;5038690;28;19972;-79
2022/11/19 17:26:26;;;;;;;;;;;;;;;;;;5038816;28;20428;-79
2022/11/19 17:28:52;;;;;;;;;;;;;;;;;;5039739;28;19921;-78